sensor_id;sensor_type;location;lat;lon;timestamp;P1;durP1;ratioP1;P2;durP2;ratioP2
80313;SDS011;69628;47.516;18.828;2023-06-24T00:00:18;6.25;;;3.72;;
80313;SDS011;69628;47.516;18.828;2023-06-24T00:01:19;5.82;;;3.88;;
80313;SDS011;69628;47.516;18.828;2023-06-24T00:02:19;7.72;;;3.70;;
80313;SDS011;69628;47.516;18.828;2023-06-24T00:03:23;6.18;;;4.25;;
80313;SDS011;69628;47.516;18.828;2023-06-24T00:04:24;6.85;;;3.95;;
80313;SDS011;69628;47.516;18.828;2023-06-24T00:05:24;6.25;;;4.13;;
80313;SDS011;69628;47.516;18.828;2023-06-24T00:06:25;6.95;;;3.65;;
80313;SDS011;69628;47.516;18.828;2023-06-24T00:07:26;14.20;;;4.03;;
80313;SDS011;69628;47.516;18.828;2023-06-24T00:08:26;5.53;;;3.67;;
80313;SDS011;69628;47.516;18.828;2023-06-24T00:09:33;6.45;;;4.10;;
80313;SDS011;69628;47.516;18.828;2023-06-24T00:10:34;7.50;;;3.55;;
80313;SDS011;69628;47.516;18.828;2023-06-24T00:11:34;6.10;;;3.75;;
80313;SDS011;69628;47.516;18.828;2023-06-24T00:12:35;9.73;;;4.43;;
80313;SDS011;69628;47.516;18.828;2023-06-24T00:13:35;6.57;;;3.78;;
80313;SDS011;69628;47.516;18.828;2023-06-24T00:14:36;5.43;;;3.60;;
80313;SDS011;69628;47.516;18.828;2023-06-24T00:15:37;9.35;;;4.18;;
80313;SDS011;69628;47.516;18.828;2023-06-24T00:16:41;7.32;;;3.92;;
80313;SDS011;69628;47.516;18.828;2023-06-24T00:17:41;8.73;;;3.88;;
80313;SDS011;69628;47.516;18.828;2023-06-24T00:18:42;7.70;;;4.32;;
80313;SDS011;69628;47.516;18.828;2023-06-24T00:19:42;8.02;;;4.38;;
80313;SDS011;69628;47.516;18.828;2023-06-24T00:20:44;11.57;;;4.72;;
80313;SDS011;69628;47.516;18.828;2023-06-24T00:21:44;9.10;;;3.90;;
80313;SDS011;69628;47.516;18.828;2023-06-24T00:22:44;5.75;;;3.90;;
80313;SDS011;69628;47.516;18.828;2023-06-24T00:23:48;11.65;;;4.22;;
80313;SDS011;69628;47.516;18.828;2023-06-24T00:24:49;6.97;;;4.03;;
80313;SDS011;69628;47.516;18.828;2023-06-24T00:25:51;7.18;;;4.03;;
80313;SDS011;69628;47.516;18.828;2023-06-24T00:26:52;10.60;;;4.50;;
80313;SDS011;69628;47.516;18.828;2023-06-24T00:27:53;7.07;;;4.00;;
80313;SDS011;69628;47.516;18.828;2023-06-24T00:28:53;6.57;;;3.92;;
80313;SDS011;69628;47.516;18.828;2023-06-24T00:29:53;6.20;;;3.88;;
80313;SDS011;69628;47.516;18.828;2023-06-24T00:30:54;8.73;;;4.22;;
80313;SDS011;69628;47.516;18.828;2023-06-24T00:31:54;6.70;;;3.90;;
80313;SDS011;69628;47.516;18.828;2023-06-24T00:32:55;6.63;;;3.95;;
80313;SDS011;69628;47.516;18.828;2023-06-24T00:33:56;12.02;;;4.20;;
80313;SDS011;69628;47.516;18.828;2023-06-24T00:34:56;6.10;;;4.03;;
80313;SDS011;69628;47.516;18.828;2023-06-24T00:36:00;7.00;;;4.40;;
80313;SDS011;69628;47.516;18.828;2023-06-24T00:37:00;7.57;;;5.22;;
80313;SDS011;69628;47.516;18.828;2023-06-24T00:38:03;6.75;;;4.53;;
80313;SDS011;69628;47.516;18.828;2023-06-24T00:39:04;7.38;;;4.70;;
80313;SDS011;69628;47.516;18.828;2023-06-24T00:40:05;6.82;;;4.13;;
80313;SDS011;69628;47.516;18.828;2023-06-24T00:41:07;6.43;;;3.92;;
80313;SDS011;69628;47.516;18.828;2023-06-24T00:42:07;7.10;;;4.30;;
80313;SDS011;69628;47.516;18.828;2023-06-24T00:43:07;7.78;;;4.70;;
80313;SDS011;69628;47.516;18.828;2023-06-24T00:44:08;6.95;;;4.13;;
80313;SDS011;69628;47.516;18.828;2023-06-24T00:45:09;8.38;;;4.30;;
80313;SDS011;69628;47.516;18.828;2023-06-24T00:46:10;5.72;;;3.88;;
80313;SDS011;69628;47.516;18.828;2023-06-24T00:47:10;7.68;;;3.63;;
80313;SDS011;69628;47.516;18.828;2023-06-24T00:48:11;6.88;;;4.00;;
80313;SDS011;69628;47.516;18.828;2023-06-24T00:49:11;8.45;;;3.55;;
80313;SDS011;69628;47.516;18.828;2023-06-24T00:50:16;5.38;;;3.58;;
80313;SDS011;69628;47.516;18.828;2023-06-24T00:51:17;8.65;;;4.22;;
80313;SDS011;69628;47.516;18.828;2023-06-24T00:52:22;6.43;;;4.00;;
80313;SDS011;69628;47.516;18.828;2023-06-24T00:53:22;6.07;;;3.65;;
80313;SDS011;69628;47.516;18.828;2023-06-24T00:54:24;7.75;;;4.07;;
80313;SDS011;69628;47.516;18.828;2023-06-24T00:55:30;6.75;;;3.65;;
80313;SDS011;69628;47.516;18.828;2023-06-24T00:56:31;6.80;;;3.80;;
80313;SDS011;69628;47.516;18.828;2023-06-24T00:57:34;7.55;;;3.45;;
80313;SDS011;69628;47.516;18.828;2023-06-24T00:58:38;7.82;;;4.15;;
80313;SDS011;69628;47.516;18.828;2023-06-24T00:59:39;7.03;;;4.22;;
80313;SDS011;69628;47.516;18.828;2023-06-24T01:00:40;9.25;;;3.42;;
80313;SDS011;69628;47.516;18.828;2023-06-24T01:01:41;9.35;;;4.13;;
80313;SDS011;69628;47.516;18.828;2023-06-24T01:02:41;6.35;;;4.05;;
80313;SDS011;69628;47.516;18.828;2023-06-24T01:03:42;8.23;;;3.55;;
80313;SDS011;69628;47.516;18.828;2023-06-24T01:04:42;5.03;;;3.35;;
80313;SDS011;69628;47.516;18.828;2023-06-24T01:05:44;7.25;;;3.85;;
80313;SDS011;69628;47.516;18.828;2023-06-24T01:06:44;6.50;;;3.75;;
80313;SDS011;69628;47.516;18.828;2023-06-24T01:07:45;9.32;;;4.20;;
80313;SDS011;69628;47.516;18.828;2023-06-24T01:08:58;5.63;;;3.55;;
80313;SDS011;69628;47.516;18.828;2023-06-24T01:10:00;8.43;;;3.22;;
80313;SDS011;69628;47.516;18.828;2023-06-24T01:11:00;4.63;;;3.10;;
80313;SDS011;69628;47.516;18.828;2023-06-24T01:12:01;5.53;;;3.67;;
80313;SDS011;69628;47.516;18.828;2023-06-24T01:13:02;13.48;;;3.65;;
80313;SDS011;69628;47.516;18.828;2023-06-24T01:14:02;9.85;;;4.05;;
80313;SDS011;69628;47.516;18.828;2023-06-24T01:15:03;6.30;;;3.92;;
80313;SDS011;69628;47.516;18.828;2023-06-24T01:16:05;7.40;;;4.10;;
80313;SDS011;69628;47.516;18.828;2023-06-24T01:17:14;7.70;;;3.88;;
80313;SDS011;69628;47.516;18.828;2023-06-24T01:18:24;5.45;;;3.70;;
80313;SDS011;69628;47.516;18.828;2023-06-24T01:20:54;4.88;;;3.17;;
80313;SDS011;69628;47.516;18.828;2023-06-24T01:23:24;5.43;;;3.47;;
80313;SDS011;69628;47.516;18.828;2023-06-24T01:33:32;4.72;;;3.20;;
80313;SDS011;69628;47.516;18.828;2023-06-24T01:34:42;10.45;;;4.30;;
80313;SDS011;69628;47.516;18.828;2023-06-24T01:35:47;7.43;;;3.33;;
80313;SDS011;69628;47.516;18.828;2023-06-24T01:36:50;5.63;;;3.03;;
80313;SDS011;69628;47.516;18.828;2023-06-24T01:37:56;4.55;;;2.92;;
80313;SDS011;69628;47.516;18.828;2023-06-24T01:39:03;5.50;;;3.08;;
80313;SDS011;69628;47.516;18.828;2023-06-24T01:40:15;5.82;;;3.33;;
80313;SDS011;69628;47.516;18.828;2023-06-24T01:41:21;6.40;;;3.60;;
80313;SDS011;69628;47.516;18.828;2023-06-24T01:42:22;5.68;;;3.47;;
80313;SDS011;69628;47.516;18.828;2023-06-24T01:43:23;6.22;;;3.28;;
80313;SDS011;69628;47.516;18.828;2023-06-24T01:44:24;5.07;;;3.50;;
80313;SDS011;69628;47.516;18.828;2023-06-24T01:45:26;5.05;;;2.95;;
80313;SDS011;69628;47.516;18.828;2023-06-24T01:46:29;5.55;;;3.22;;
80313;SDS011;69628;47.516;18.828;2023-06-24T01:47:29;5.03;;;3.35;;
80313;SDS011;69628;47.516;18.828;2023-06-24T01:48:32;6.38;;;3.20;;
80313;SDS011;69628;47.516;18.828;2023-06-24T01:50:37;5.32;;;3.08;;
80313;SDS011;69628;47.516;18.828;2023-06-24T01:51:40;6.82;;;2.92;;
80313;SDS011;69628;47.516;18.828;2023-06-24T01:52:43;5.18;;;3.08;;
80313;SDS011;69628;47.516;18.828;2023-06-24T01:53:44;6.25;;;3.28;;
80313;SDS011;69628;47.516;18.828;2023-06-24T01:54:49;6.05;;;3.53;;
80313;SDS011;69628;47.516;18.828;2023-06-24T01:55:50;5.95;;;3.38;;
80313;SDS011;69628;47.516;18.828;2023-06-24T01:56:52;6.50;;;3.20;;
80313;SDS011;69628;47.516;18.828;2023-06-24T01:57:54;4.57;;;3.05;;
80313;SDS011;69628;47.516;18.828;2023-06-24T01:58:57;6.22;;;3.40;;
80313;SDS011;69628;47.516;18.828;2023-06-24T01:59:58;5.88;;;3.28;;
80313;SDS011;69628;47.516;18.828;2023-06-24T02:01:00;8.15;;;3.50;;
80313;SDS011;69628;47.516;18.828;2023-06-24T02:02:01;5.45;;;3.10;;
80313;SDS011;69628;47.516;18.828;2023-06-24T02:03:03;6.05;;;3.40;;
80313;SDS011;69628;47.516;18.828;2023-06-24T02:04:04;5.72;;;2.78;;
80313;SDS011;69628;47.516;18.828;2023-06-24T02:05:07;9.63;;;3.15;;
80313;SDS011;69628;47.516;18.828;2023-06-24T02:06:09;8.35;;;3.25;;
80313;SDS011;69628;47.516;18.828;2023-06-24T02:07:09;5.28;;;3.17;;
80313;SDS011;69628;47.516;18.828;2023-06-24T02:08:11;5.43;;;2.92;;
80313;SDS011;69628;47.516;18.828;2023-06-24T02:09:14;5.22;;;3.00;;
80313;SDS011;69628;47.516;18.828;2023-06-24T02:10:16;5.30;;;2.80;;
80313;SDS011;69628;47.516;18.828;2023-06-24T02:11:16;6.65;;;3.58;;
80313;SDS011;69628;47.516;18.828;2023-06-24T02:12:18;6.85;;;2.88;;
80313;SDS011;69628;47.516;18.828;2023-06-24T02:13:19;5.40;;;3.30;;
80313;SDS011;69628;47.516;18.828;2023-06-24T02:14:20;6.28;;;3.13;;
80313;SDS011;69628;47.516;18.828;2023-06-24T02:15:20;6.45;;;3.22;;
80313;SDS011;69628;47.516;18.828;2023-06-24T02:16:21;7.20;;;2.97;;
80313;SDS011;69628;47.516;18.828;2023-06-24T02:17:23;5.03;;;2.80;;
80313;SDS011;69628;47.516;18.828;2023-06-24T02:18:24;4.78;;;2.83;;
80313;SDS011;69628;47.516;18.828;2023-06-24T02:19:28;4.68;;;2.97;;
80313;SDS011;69628;47.516;18.828;2023-06-24T02:20:29;4.68;;;2.53;;
80313;SDS011;69628;47.516;18.828;2023-06-24T02:21:31;6.07;;;3.20;;
80313;SDS011;69628;47.516;18.828;2023-06-24T02:22:33;6.53;;;3.38;;
80313;SDS011;69628;47.516;18.828;2023-06-24T02:23:33;8.18;;;2.78;;
80313;SDS011;69628;47.516;18.828;2023-06-24T02:24:36;4.50;;;2.67;;
80313;SDS011;69628;47.516;18.828;2023-06-24T02:25:38;6.93;;;3.08;;
80313;SDS011;69628;47.516;18.828;2023-06-24T02:26:40;5.45;;;3.53;;
80313;SDS011;69628;47.516;18.828;2023-06-24T02:27:41;7.78;;;3.22;;
80313;SDS011;69628;47.516;18.828;2023-06-24T02:28:41;4.78;;;3.08;;
80313;SDS011;69628;47.516;18.828;2023-06-24T02:29:45;5.38;;;3.22;;
80313;SDS011;69628;47.516;18.828;2023-06-24T02:30:46;7.45;;;2.70;;
80313;SDS011;69628;47.516;18.828;2023-06-24T02:31:47;5.55;;;3.20;;
80313;SDS011;69628;47.516;18.828;2023-06-24T02:32:47;5.43;;;3.38;;
80313;SDS011;69628;47.516;18.828;2023-06-24T02:33:48;4.53;;;2.90;;
80313;SDS011;69628;47.516;18.828;2023-06-24T02:34:48;6.28;;;3.08;;
80313;SDS011;69628;47.516;18.828;2023-06-24T02:35:49;5.45;;;3.65;;
80313;SDS011;69628;47.516;18.828;2023-06-24T02:36:49;5.63;;;3.05;;
80313;SDS011;69628;47.516;18.828;2023-06-24T02:37:49;4.82;;;3.05;;
80313;SDS011;69628;47.516;18.828;2023-06-24T02:38:50;4.47;;;3.20;;
80313;SDS011;69628;47.516;18.828;2023-06-24T02:39:50;5.47;;;2.80;;
80313;SDS011;69628;47.516;18.828;2023-06-24T02:40:51;5.97;;;3.45;;
80313;SDS011;69628;47.516;18.828;2023-06-24T02:41:52;4.25;;;2.83;;
80313;SDS011;69628;47.516;18.828;2023-06-24T02:42:52;5.38;;;2.97;;
80313;SDS011;69628;47.516;18.828;2023-06-24T02:43:52;4.07;;;2.80;;
80313;SDS011;69628;47.516;18.828;2023-06-24T02:44:53;6.57;;;3.10;;
80313;SDS011;69628;47.516;18.828;2023-06-24T02:45:53;4.15;;;2.78;;
80313;SDS011;69628;47.516;18.828;2023-06-24T02:46:54;6.25;;;3.30;;
80313;SDS011;69628;47.516;18.828;2023-06-24T02:47:56;5.15;;;3.42;;
80313;SDS011;69628;47.516;18.828;2023-06-24T02:48:57;7.13;;;3.50;;
80313;SDS011;69628;47.516;18.828;2023-06-24T02:49:58;6.22;;;2.95;;
80313;SDS011;69628;47.516;18.828;2023-06-24T02:50:59;6.88;;;3.08;;
80313;SDS011;69628;47.516;18.828;2023-06-24T02:51:59;6.22;;;3.30;;
80313;SDS011;69628;47.516;18.828;2023-06-24T02:53:00;4.38;;;3.22;;
80313;SDS011;69628;47.516;18.828;2023-06-24T02:54:01;4.68;;;3.10;;
80313;SDS011;69628;47.516;18.828;2023-06-24T02:55:03;6.90;;;2.80;;
80313;SDS011;69628;47.516;18.828;2023-06-24T02:56:04;4.47;;;2.97;;
80313;SDS011;69628;47.516;18.828;2023-06-24T02:57:06;8.63;;;3.10;;
80313;SDS011;69628;47.516;18.828;2023-06-24T02:58:06;9.88;;;3.67;;
80313;SDS011;69628;47.516;18.828;2023-06-24T02:59:08;6.28;;;3.03;;
80313;SDS011;69628;47.516;18.828;2023-06-24T03:00:09;8.40;;;3.00;;
80313;SDS011;69628;47.516;18.828;2023-06-24T03:01:13;6.05;;;2.70;;
80313;SDS011;69628;47.516;18.828;2023-06-24T03:02:14;4.53;;;2.90;;
80313;SDS011;69628;47.516;18.828;2023-06-24T03:03:16;5.15;;;2.85;;
80313;SDS011;69628;47.516;18.828;2023-06-24T03:04:17;4.43;;;2.83;;
80313;SDS011;69628;47.516;18.828;2023-06-24T03:05:19;8.52;;;2.92;;
80313;SDS011;69628;47.516;18.828;2023-06-24T03:06:19;5.50;;;2.90;;
80313;SDS011;69628;47.516;18.828;2023-06-24T03:07:21;4.80;;;2.67;;
80313;SDS011;69628;47.516;18.828;2023-06-24T03:08:22;6.30;;;3.10;;
80313;SDS011;69628;47.516;18.828;2023-06-24T03:09:24;5.05;;;3.05;;
80313;SDS011;69628;47.516;18.828;2023-06-24T03:10:25;5.95;;;2.60;;
80313;SDS011;69628;47.516;18.828;2023-06-24T03:11:25;4.53;;;2.75;;
80313;SDS011;69628;47.516;18.828;2023-06-24T03:12:27;6.10;;;2.83;;
80313;SDS011;69628;47.516;18.828;2023-06-24T03:13:28;5.25;;;2.78;;
80313;SDS011;69628;47.516;18.828;2023-06-24T03:14:29;4.20;;;2.92;;
80313;SDS011;69628;47.516;18.828;2023-06-24T03:15:29;5.05;;;2.95;;
80313;SDS011;69628;47.516;18.828;2023-06-24T03:16:29;4.20;;;2.53;;
80313;SDS011;69628;47.516;18.828;2023-06-24T03:17:30;6.75;;;2.90;;
80313;SDS011;69628;47.516;18.828;2023-06-24T03:18:30;5.43;;;3.00;;
80313;SDS011;69628;47.516;18.828;2023-06-24T03:19:31;7.25;;;2.67;;
80313;SDS011;69628;47.516;18.828;2023-06-24T03:20:31;4.10;;;2.65;;
80313;SDS011;69628;47.516;18.828;2023-06-24T03:21:38;8.05;;;3.10;;
80313;SDS011;69628;47.516;18.828;2023-06-24T03:22:38;4.30;;;2.45;;
80313;SDS011;69628;47.516;18.828;2023-06-24T03:23:39;6.22;;;2.38;;
80313;SDS011;69628;47.516;18.828;2023-06-24T03:24:40;4.55;;;2.67;;
80313;SDS011;69628;47.516;18.828;2023-06-24T03:25:40;11.18;;;3.00;;
80313;SDS011;69628;47.516;18.828;2023-06-24T03:26:41;4.63;;;2.67;;
80313;SDS011;69628;47.516;18.828;2023-06-24T03:27:41;3.63;;;2.33;;
80313;SDS011;69628;47.516;18.828;2023-06-24T03:28:42;3.38;;;2.40;;
80313;SDS011;69628;47.516;18.828;2023-06-24T03:29:42;4.22;;;2.40;;
80313;SDS011;69628;47.516;18.828;2023-06-24T03:30:43;3.85;;;2.30;;
80313;SDS011;69628;47.516;18.828;2023-06-24T03:31:43;3.80;;;2.38;;
80313;SDS011;69628;47.516;18.828;2023-06-24T03:32:45;5.00;;;2.53;;
80313;SDS011;69628;47.516;18.828;2023-06-24T03:33:46;3.53;;;2.05;;
80313;SDS011;69628;47.516;18.828;2023-06-24T03:34:47;4.38;;;2.25;;
80313;SDS011;69628;47.516;18.828;2023-06-24T03:35:47;4.22;;;2.47;;
80313;SDS011;69628;47.516;18.828;2023-06-24T03:36:48;3.95;;;2.35;;
80313;SDS011;69628;47.516;18.828;2023-06-24T03:37:48;6.78;;;2.20;;
80313;SDS011;69628;47.516;18.828;2023-06-24T03:38:48;4.35;;;2.40;;
80313;SDS011;69628;47.516;18.828;2023-06-24T03:39:49;3.85;;;2.20;;
80313;SDS011;69628;47.516;18.828;2023-06-24T03:40:49;2.90;;;1.90;;
80313;SDS011;69628;47.516;18.828;2023-06-24T03:41:50;5.38;;;2.53;;
80313;SDS011;69628;47.516;18.828;2023-06-24T03:42:50;3.67;;;2.20;;
80313;SDS011;69628;47.516;18.828;2023-06-24T03:43:50;2.88;;;2.13;;
80313;SDS011;69628;47.516;18.828;2023-06-24T03:44:51;5.03;;;1.90;;
80313;SDS011;69628;47.516;18.828;2023-06-24T03:45:51;4.18;;;2.25;;
80313;SDS011;69628;47.516;18.828;2023-06-24T03:46:52;2.83;;;2.10;;
80313;SDS011;69628;47.516;18.828;2023-06-24T03:47:52;7.78;;;2.45;;
80313;SDS011;69628;47.516;18.828;2023-06-24T03:48:52;3.08;;;1.83;;
80313;SDS011;69628;47.516;18.828;2023-06-24T03:49:53;8.55;;;2.03;;
80313;SDS011;69628;47.516;18.828;2023-06-24T03:50:53;3.38;;;1.95;;
80313;SDS011;69628;47.516;18.828;2023-06-24T03:51:54;4.40;;;1.98;;
80313;SDS011;69628;47.516;18.828;2023-06-24T03:52:54;5.72;;;2.13;;
80313;SDS011;69628;47.516;18.828;2023-06-24T03:53:54;4.10;;;2.10;;
80313;SDS011;69628;47.516;18.828;2023-06-24T03:54:55;2.70;;;1.65;;
80313;SDS011;69628;47.516;18.828;2023-06-24T03:55:55;3.65;;;1.80;;
80313;SDS011;69628;47.516;18.828;2023-06-24T03:56:56;3.28;;;1.50;;
80313;SDS011;69628;47.516;18.828;2023-06-24T03:57:56;2.50;;;1.70;;
80313;SDS011;69628;47.516;18.828;2023-06-24T03:58:56;2.85;;;1.80;;
80313;SDS011;69628;47.516;18.828;2023-06-24T03:59:57;3.60;;;1.85;;
80313;SDS011;69628;47.516;18.828;2023-06-24T04:00:59;2.10;;;1.73;;
80313;SDS011;69628;47.516;18.828;2023-06-24T04:02:00;1.92;;;1.50;;
80313;SDS011;69628;47.516;18.828;2023-06-24T04:03:00;3.00;;;2.00;;
80313;SDS011;69628;47.516;18.828;2023-06-24T04:04:01;4.35;;;1.80;;
80313;SDS011;69628;47.516;18.828;2023-06-24T04:05:01;3.20;;;1.80;;
80313;SDS011;69628;47.516;18.828;2023-06-24T04:06:02;6.13;;;1.75;;
80313;SDS011;69628;47.516;18.828;2023-06-24T04:07:02;5.65;;;1.58;;
80313;SDS011;69628;47.516;18.828;2023-06-24T04:08:07;4.38;;;1.90;;
80313;SDS011;69628;47.516;18.828;2023-06-24T04:09:07;4.22;;;1.60;;
80313;SDS011;69628;47.516;18.828;2023-06-24T04:10:10;2.92;;;1.83;;
80313;SDS011;69628;47.516;18.828;2023-06-24T04:11:10;3.03;;;1.50;;
80313;SDS011;69628;47.516;18.828;2023-06-24T04:12:11;3.22;;;1.85;;
80313;SDS011;69628;47.516;18.828;2023-06-24T04:13:12;5.18;;;1.60;;
80313;SDS011;69628;47.516;18.828;2023-06-24T04:14:12;2.38;;;1.40;;
80313;SDS011;69628;47.516;18.828;2023-06-24T04:15:12;1.65;;;1.42;;
80313;SDS011;69628;47.516;18.828;2023-06-24T04:16:13;2.95;;;1.60;;
80313;SDS011;69628;47.516;18.828;2023-06-24T04:17:14;1.50;;;1.27;;
80313;SDS011;69628;47.516;18.828;2023-06-24T04:18:14;2.60;;;1.25;;
80313;SDS011;69628;47.516;18.828;2023-06-24T04:19:14;2.95;;;1.67;;
80313;SDS011;69628;47.516;18.828;2023-06-24T04:20:15;1.40;;;1.17;;
80313;SDS011;69628;47.516;18.828;2023-06-24T04:21:15;1.55;;;1.38;;
80313;SDS011;69628;47.516;18.828;2023-06-24T04:22:16;1.80;;;1.40;;
80313;SDS011;69628;47.516;18.828;2023-06-24T04:23:17;1.90;;;1.30;;
80313;SDS011;69628;47.516;18.828;2023-06-24T04:24:17;3.33;;;1.45;;
80313;SDS011;69628;47.516;18.828;2023-06-24T04:25:17;1.55;;;1.40;;
80313;SDS011;69628;47.516;18.828;2023-06-24T04:26:18;11.38;;;1.60;;
80313;SDS011;69628;47.516;18.828;2023-06-24T04:27:19;1.77;;;1.30;;
80313;SDS011;69628;47.516;18.828;2023-06-24T04:28:19;5.35;;;1.55;;
80313;SDS011;69628;47.516;18.828;2023-06-24T04:29:19;1.98;;;1.15;;
80313;SDS011;69628;47.516;18.828;2023-06-24T04:30:20;0.80;;;0.80;;
80313;SDS011;69628;47.516;18.828;2023-06-24T04:31:20;3.38;;;1.23;;
80313;SDS011;69628;47.516;18.828;2023-06-24T04:32:20;2.15;;;1.17;;
80313;SDS011;69628;47.516;18.828;2023-06-24T04:33:21;5.40;;;1.40;;
80313;SDS011;69628;47.516;18.828;2023-06-24T04:34:21;1.50;;;1.33;;
80313;SDS011;69628;47.516;18.828;2023-06-24T04:35:22;1.13;;;0.98;;
80313;SDS011;69628;47.516;18.828;2023-06-24T04:36:22;1.40;;;1.00;;
80313;SDS011;69628;47.516;18.828;2023-06-24T04:37:22;1.42;;;1.13;;
80313;SDS011;69628;47.516;18.828;2023-06-24T04:38:23;7.60;;;1.20;;
80313;SDS011;69628;47.516;18.828;2023-06-24T04:39:23;1.50;;;1.13;;
80313;SDS011;69628;47.516;18.828;2023-06-24T04:40:24;1.33;;;1.20;;
80313;SDS011;69628;47.516;18.828;2023-06-24T04:41:24;1.38;;;1.13;;
80313;SDS011;69628;47.516;18.828;2023-06-24T04:42:25;1.55;;;1.25;;
80313;SDS011;69628;47.516;18.828;2023-06-24T04:43:26;2.25;;;1.13;;
80313;SDS011;69628;47.516;18.828;2023-06-24T04:44:28;2.05;;;1.40;;
80313;SDS011;69628;47.516;18.828;2023-06-24T04:45:28;1.60;;;0.93;;
80313;SDS011;69628;47.516;18.828;2023-06-24T04:46:28;1.20;;;1.10;;
80313;SDS011;69628;47.516;18.828;2023-06-24T04:47:29;0.88;;;0.82;;
80313;SDS011;69628;47.516;18.828;2023-06-24T04:48:29;1.10;;;1.00;;
80313;SDS011;69628;47.516;18.828;2023-06-24T04:49:30;1.15;;;1.00;;
80313;SDS011;69628;47.516;18.828;2023-06-24T04:50:30;4.53;;;1.13;;
80313;SDS011;69628;47.516;18.828;2023-06-24T04:51:31;0.73;;;0.55;;
80313;SDS011;69628;47.516;18.828;2023-06-24T04:52:32;0.90;;;0.90;;
80313;SDS011;69628;47.516;18.828;2023-06-24T04:53:32;12.15;;;1.20;;
80313;SDS011;69628;47.516;18.828;2023-06-24T04:54:33;0.88;;;0.80;;
80313;SDS011;69628;47.516;18.828;2023-06-24T04:55:34;0.98;;;0.70;;
80313;SDS011;69628;47.516;18.828;2023-06-24T04:56:34;0.80;;;0.80;;
80313;SDS011;69628;47.516;18.828;2023-06-24T04:57:34;0.60;;;0.60;;
80313;SDS011;69628;47.516;18.828;2023-06-24T04:58:35;3.90;;;0.90;;
80313;SDS011;69628;47.516;18.828;2023-06-24T04:59:35;1.08;;;0.98;;
80313;SDS011;69628;47.516;18.828;2023-06-24T05:00:38;2.63;;;0.90;;
80313;SDS011;69628;47.516;18.828;2023-06-24T05:01:38;5.47;;;1.67;;
80313;SDS011;69628;47.516;18.828;2023-06-24T05:02:39;0.80;;;0.80;;
80313;SDS011;69628;47.516;18.828;2023-06-24T05:03:39;2.38;;;0.88;;
80313;SDS011;69628;47.516;18.828;2023-06-24T05:04:39;0.60;;;0.60;;
80313;SDS011;69628;47.516;18.828;2023-06-24T05:05:40;1.52;;;0.88;;
80313;SDS011;69628;47.516;18.828;2023-06-24T05:06:40;1.20;;;0.88;;
80313;SDS011;69628;47.516;18.828;2023-06-24T05:07:41;0.93;;;0.93;;
80313;SDS011;69628;47.516;18.828;2023-06-24T05:08:41;0.82;;;0.73;;
80313;SDS011;69628;47.516;18.828;2023-06-24T05:09:41;0.82;;;0.77;;
80313;SDS011;69628;47.516;18.828;2023-06-24T05:10:43;0.70;;;0.70;;
80313;SDS011;69628;47.516;18.828;2023-06-24T05:11:44;1.15;;;1.05;;
80313;SDS011;69628;47.516;18.828;2023-06-24T05:12:44;2.53;;;1.10;;
80313;SDS011;69628;47.516;18.828;2023-06-24T05:13:44;1.13;;;1.00;;
80313;SDS011;69628;47.516;18.828;2023-06-24T05:14:49;2.13;;;0.85;;
80313;SDS011;69628;47.516;18.828;2023-06-24T05:15:50;0.63;;;0.63;;
80313;SDS011;69628;47.516;18.828;2023-06-24T05:16:50;5.20;;;0.80;;
80313;SDS011;69628;47.516;18.828;2023-06-24T05:17:51;1.60;;;0.82;;
80313;SDS011;69628;47.516;18.828;2023-06-24T05:18:51;0.90;;;0.55;;
80313;SDS011;69628;47.516;18.828;2023-06-24T05:19:51;0.90;;;0.80;;
80313;SDS011;69628;47.516;18.828;2023-06-24T05:20:52;1.45;;;0.90;;
80313;SDS011;69628;47.516;18.828;2023-06-24T05:21:52;1.50;;;0.85;;
80313;SDS011;69628;47.516;18.828;2023-06-24T05:22:53;0.90;;;0.60;;
80313;SDS011;69628;47.516;18.828;2023-06-24T05:23:54;0.73;;;0.73;;
80313;SDS011;69628;47.516;18.828;2023-06-24T05:24:54;1.38;;;0.90;;
80313;SDS011;69628;47.516;18.828;2023-06-24T05:25:55;5.22;;;0.60;;
80313;SDS011;69628;47.516;18.828;2023-06-24T05:26:55;0.63;;;0.57;;
80313;SDS011;69628;47.516;18.828;2023-06-24T05:27:55;0.73;;;0.73;;
80313;SDS011;69628;47.516;18.828;2023-06-24T05:28:56;0.57;;;0.57;;
80313;SDS011;69628;47.516;18.828;2023-06-24T05:29:56;0.40;;;0.40;;
80313;SDS011;69628;47.516;18.828;2023-06-24T05:30:57;2.30;;;0.90;;
80313;SDS011;69628;47.516;18.828;2023-06-24T05:31:57;0.70;;;0.70;;
80313;SDS011;69628;47.516;18.828;2023-06-24T05:32:58;0.73;;;0.70;;
80313;SDS011;69628;47.516;18.828;2023-06-24T05:33:58;1.65;;;0.88;;
80313;SDS011;69628;47.516;18.828;2023-06-24T05:35:00;0.55;;;0.55;;
80313;SDS011;69628;47.516;18.828;2023-06-24T05:36:00;3.45;;;0.82;;
80313;SDS011;69628;47.516;18.828;2023-06-24T05:37:00;1.08;;;0.95;;
80313;SDS011;69628;47.516;18.828;2023-06-24T05:38:01;1.55;;;0.95;;
80313;SDS011;69628;47.516;18.828;2023-06-24T05:39:01;3.15;;;1.50;;
80313;SDS011;69628;47.516;18.828;2023-06-24T05:40:02;0.98;;;0.88;;
80313;SDS011;69628;47.516;18.828;2023-06-24T05:41:04;0.77;;;0.77;;
80313;SDS011;69628;47.516;18.828;2023-06-24T05:42:05;1.48;;;0.52;;
80313;SDS011;69628;47.516;18.828;2023-06-24T05:43:05;3.13;;;0.40;;
80313;SDS011;69628;47.516;18.828;2023-06-24T05:44:06;0.95;;;0.75;;
80313;SDS011;69628;47.516;18.828;2023-06-24T05:45:09;1.15;;;0.85;;
80313;SDS011;69628;47.516;18.828;2023-06-24T05:46:09;0.65;;;0.65;;
80313;SDS011;69628;47.516;18.828;2023-06-24T05:47:10;1.25;;;0.90;;
80313;SDS011;69628;47.516;18.828;2023-06-24T05:48:10;3.53;;;0.80;;
80313;SDS011;69628;47.516;18.828;2023-06-24T05:49:11;3.05;;;1.00;;
80313;SDS011;69628;47.516;18.828;2023-06-24T05:50:11;0.55;;;0.55;;
80313;SDS011;69628;47.516;18.828;2023-06-24T05:51:12;0.90;;;0.88;;
80313;SDS011;69628;47.516;18.828;2023-06-24T05:52:12;1.00;;;0.88;;
80313;SDS011;69628;47.516;18.828;2023-06-24T05:53:13;0.40;;;0.40;;
80313;SDS011;69628;47.516;18.828;2023-06-24T05:54:13;1.08;;;0.85;;
80313;SDS011;69628;47.516;18.828;2023-06-24T05:55:13;0.68;;;0.60;;
80313;SDS011;69628;47.516;18.828;2023-06-24T05:56:14;1.00;;;0.90;;
80313;SDS011;69628;47.516;18.828;2023-06-24T05:57:14;0.70;;;0.70;;
80313;SDS011;69628;47.516;18.828;2023-06-24T05:58:15;1.73;;;0.70;;
80313;SDS011;69628;47.516;18.828;2023-06-24T05:59:15;0.80;;;0.80;;
80313;SDS011;69628;47.516;18.828;2023-06-24T06:00:17;4.63;;;0.98;;
80313;SDS011;69628;47.516;18.828;2023-06-24T06:01:18;1.30;;;0.80;;
80313;SDS011;69628;47.516;18.828;2023-06-24T06:02:18;0.70;;;0.70;;
80313;SDS011;69628;47.516;18.828;2023-06-24T06:03:19;1.20;;;0.85;;
80313;SDS011;69628;47.516;18.828;2023-06-24T06:04:19;0.77;;;0.75;;
80313;SDS011;69628;47.516;18.828;2023-06-24T06:05:20;0.68;;;0.68;;
80313;SDS011;69628;47.516;18.828;2023-06-24T06:06:20;0.93;;;0.93;;
80313;SDS011;69628;47.516;18.828;2023-06-24T06:07:20;0.88;;;0.85;;
80313;SDS011;69628;47.516;18.828;2023-06-24T06:08:21;1.33;;;0.88;;
80313;SDS011;69628;47.516;18.828;2023-06-24T06:09:21;1.35;;;0.80;;
80313;SDS011;69628;47.516;18.828;2023-06-24T06:10:22;1.23;;;0.77;;
80313;SDS011;69628;47.516;18.828;2023-06-24T06:11:22;2.13;;;0.93;;
80313;SDS011;69628;47.516;18.828;2023-06-24T06:12:23;1.83;;;0.73;;
80313;SDS011;69628;47.516;18.828;2023-06-24T06:13:23;1.63;;;0.80;;
80313;SDS011;69628;47.516;18.828;2023-06-24T06:14:23;1.00;;;0.80;;
80313;SDS011;69628;47.516;18.828;2023-06-24T06:15:24;1.10;;;0.77;;